Time;durP1;ratioP1;P1;durP2;ratioP2;P2;SDS_P1;SDS_P2;PMS_P1;PMS_P2;Temp;Humidity;BMP_temperature;BMP_pressure;BME280_temperature;BME280_humidity;BME280_pressure;Samples;Min_cycle;Max_cycle;Signal;HPM_P1;HPM_P2
2021/06/16 00:01:47;;;;;;;9.32;5.85;;;;;;;;;;3582488;40;20035;-70
2021/06/16 00:04:12;;;;;;;8.05;5.35;;;;;;;;;;3571749;40;20044;-70
2021/06/16 00:06:38;;;;;;;6.78;5.63;;;;;;;;;;3579992;40;20056;-70
2021/06/16 00:09:05;;;;;;;7.30;6.25;;;;;;;;;;3581310;40;20061;-70
2021/06/16 00:11:31;;;;;;;11.00;5.80;;;;;;;;;;3581319;40;20033;-70
2021/06/16 00:13:57;;;;;;;7.03;5.80;;;;;;;;;;3581888;40;20271;-70
2021/06/16 00:16:23;;;;;;;10.68;6.25;;;;;;;;;;3581300;40;20029;-71
2021/06/16 00:18:48;;;;;;;7.68;5.97;;;;;;;;;;3580215;40;20072;-70
2021/06/16 00:21:14;;;;;;;8.60;6.13;;;;;;;;;;3582163;40;20067;-70
2021/06/16 00:23:40;;;;;;;11.35;6.05;;;;;;;;;;3580888;40;20245;-70
2021/06/16 00:26:05;;;;;;;6.90;5.60;;;;;;;;;;3581918;40;20049;-70
2021/06/16 00:28:31;;;;;;;6.75;5.85;;;;;;;;;;3579190;40;20309;-71
2021/06/16 00:30:56;;;;;;;10.20;6.68;;;;;;;;;;3579642;40;20024;-70
2021/06/16 00:33:22;;;;;;;9.80;6.45;;;;;;;;;;3581583;40;20391;-70
2021/06/16 00:35:47;;;;;;;9.05;6.60;;;;;;;;;;3582269;40;20037;-70
2021/06/16 00:38:13;;;;;;;12.15;6.28;;;;;;;;;;3580808;40;20037;-70
2021/06/16 00:40:38;;;;;;;8.38;6.25;;;;;;;;;;3580545;40;20047;-70
2021/06/16 00:43:04;;;;;;;7.43;6.38;;;;;;;;;;3581274;40;20084;-70
2021/06/16 00:45:30;;;;;;;8.82;6.45;;;;;;;;;;3581655;40;20040;-70
2021/06/16 00:47:56;;;;;;;7.32;6.28;;;;;;;;;;3582324;40;20044;-70
2021/06/16 00:50:24;;;;;;;10.02;6.80;;;;;;;;;;3580882;40;20069;-69
2021/06/16 00:52:50;;;;;;;10.57;7.10;;;;;;;;;;3580134;40;20086;-69
2021/06/16 00:55:15;;;;;;;7.63;6.57;;;;;;;;;;3581898;40;20495;-70
2021/06/16 00:57:41;;;;;;;10.45;7.45;;;;;;;;;;3581719;40;20407;-71
2021/06/16 01:00:08;;;;;;;11.27;7.00;;;;;;;;;;3582643;40;20065;-71
2021/06/16 01:02:45;;;;;;;8.70;6.65;;;;;;;;;;3578936;40;20125;-71
2021/06/16 01:05:11;;;;;;;7.93;6.32;;;;;;;;;;3580434;40;20092;-70
2021/06/16 01:07:42;;;;;;;8.18;6.82;;;;;;;;;;3580860;40;20056;-70
2021/06/16 01:10:14;;;;;;;7.32;6.03;;;;;;;;;;3581908;40;20068;-70
2021/06/16 01:13:13;;;;;;;8.48;6.95;;;;;;;;;;3581498;40;20039;-70
2021/06/16 01:15:55;;;;;;;9.98;7.22;;;;;;;;;;3571590;40;20234;-70
2021/06/16 01:18:21;;;;;;;8.80;6.93;;;;;;;;;;3580040;40;20053;-70
2021/06/16 01:20:49;;;;;;;11.05;6.75;;;;;;;;;;3581115;40;20037;-70
2021/06/16 01:23:35;;;;;;;8.82;6.38;;;;;;;;;;3579843;40;20041;-71
2021/06/16 01:26:00;;;;;;;9.48;6.78;;;;;;;;;;3580069;40;20785;-70
2021/06/16 01:28:32;;;;;;;7.72;6.20;;;;;;;;;;3575894;40;20048;-70
2021/06/16 01:30:58;;;;;;;10.63;7.00;;;;;;;;;;3580543;40;20079;-70
2021/06/16 01:33:24;;;;;;;9.48;7.38;;;;;;;;;;3583363;40;20441;-70
2021/06/16 01:35:52;;;;;;;8.70;6.72;;;;;;;;;;3581149;40;20120;-71
2021/06/16 01:38:20;;;;;;;8.70;6.75;;;;;;;;;;3579555;40;20037;-70
2021/06/16 01:40:48;;;;;;;8.38;6.55;;;;;;;;;;3571624;40;20047;-70
2021/06/16 01:43:16;;;;;;;8.43;6.70;;;;;;;;;;3581439;40;20141;-70
2021/06/16 01:45:44;;;;;;;18.08;7.07;;;;;;;;;;3579953;40;20127;-70
2021/06/16 01:48:14;;;;;;;9.55;7.18;;;;;;;;;;3579665;40;20040;-70
2021/06/16 01:50:41;;;;;;;14.65;7.15;;;;;;;;;;3580679;40;20063;-70
2021/06/16 01:53:07;;;;;;;8.75;6.85;;;;;;;;;;3580886;40;20040;-70
2021/06/16 01:55:33;;;;;;;9.95;6.70;;;;;;;;;;3580907;40;20036;-70
2021/06/16 01:57:59;;;;;;;8.82;7.32;;;;;;;;;;3581788;40;20032;-70
2021/06/16 02:00:26;;;;;;;10.13;6.97;;;;;;;;;;3580754;40;20029;-70
2021/06/16 02:02:53;;;;;;;8.85;7.28;;;;;;;;;;3580814;40;20051;-70
2021/06/16 02:05:20;;;;;;;7.15;6.45;;;;;;;;;;3580485;40;20028;-70
2021/06/16 02:08:00;;;;;;;8.90;6.95;;;;;;;;;;3581892;40;20032;-70
2021/06/16 02:10:29;;;;;;;8.43;6.55;;;;;;;;;;3581144;40;20118;-70
2021/06/16 02:12:57;;;;;;;8.30;6.90;;;;;;;;;;3579224;40;20040;-70
2021/06/16 02:15:27;;;;;;;7.80;6.53;;;;;;;;;;3581726;40;20057;-70
2021/06/16 02:17:55;;;;;;;7.80;6.90;;;;;;;;;;3580963;40;20052;-70
2021/06/16 02:20:21;;;;;;;10.07;7.57;;;;;;;;;;3580599;40;20375;-70
2021/06/16 02:22:48;;;;;;;9.52;7.63;;;;;;;;;;3579031;40;20040;-70
2021/06/16 02:25:15;;;;;;;11.82;7.72;;;;;;;;;;3579706;40;20033;-70
2021/06/16 02:27:42;;;;;;;10.13;7.47;;;;;;;;;;3579851;40;20029;-70
2021/06/16 02:30:08;;;;;;;9.73;7.25;;;;;;;;;;3580397;40;20045;-70
2021/06/16 02:32:34;;;;;;;9.82;7.75;;;;;;;;;;3580948;40;20024;-70
2021/06/16 02:34:59;;;;;;;10.05;7.70;;;;;;;;;;3572298;40;20049;-70
2021/06/16 02:37:27;;;;;;;13.05;7.85;;;;;;;;;;3580742;40;20297;-70
2021/06/16 02:39:58;;;;;;;9.50;7.20;;;;;;;;;;3579214;40;20044;-71
2021/06/16 02:42:23;;;;;;;9.45;7.03;;;;;;;;;;3583438;40;20388;-70
2021/06/16 02:44:51;;;;;;;9.27;7.60;;;;;;;;;;3581705;40;20029;-70
2021/06/16 02:47:17;;;;;;;8.55;7.05;;;;;;;;;;3580589;40;20066;-70
2021/06/16 02:49:53;;;;;;;8.82;7.65;;;;;;;;;;3580539;40;20159;-70
2021/06/16 02:52:19;;;;;;;10.48;7.40;;;;;;;;;;3580530;40;20036;-70
2021/06/16 02:55:02;;;;;;;9.07;8.13;;;;;;;;;;3579803;40;20032;-69
2021/06/16 02:57:30;;;;;;;9.07;7.53;;;;;;;;;;3580323;40;20053;-69
2021/06/16 02:59:56;;;;;;;14.38;8.00;;;;;;;;;;3580014;40;20048;-70
2021/06/16 03:02:24;;;;;;;8.23;6.97;;;;;;;;;;3579497;40;20060;-70
2021/06/16 03:04:50;;;;;;;10.35;7.70;;;;;;;;;;3579736;40;20023;-70
2021/06/16 03:07:16;;;;;;;10.68;7.80;;;;;;;;;;3579878;40;20047;-70
2021/06/16 03:09:45;;;;;;;10.20;8.10;;;;;;;;;;3571006;40;20403;-70
2021/06/16 03:12:14;;;;;;;9.88;7.53;;;;;;;;;;3581818;40;20267;-70
2021/06/16 03:14:40;;;;;;;9.07;7.07;;;;;;;;;;3579490;40;20040;-69
2021/06/16 03:17:08;;;;;;;9.07;7.53;;;;;;;;;;3580521;40;20079;-70
2021/06/16 03:19:34;;;;;;;8.30;7.13;;;;;;;;;;3581581;40;20044;-70
2021/06/16 03:22:03;;;;;;;8.77;7.85;;;;;;;;;;3579304;40;20300;-71
2021/06/16 03:24:29;;;;;;;14.15;7.38;;;;;;;;;;3580197;40;20300;-70
2021/06/16 03:26:56;;;;;;;11.55;8.63;;;;;;;;;;3578613;40;20277;-70
2021/06/16 03:29:23;;;;;;;9.50;7.90;;;;;;;;;;3578755;40;20382;-71
2021/06/16 03:31:51;;;;;;;9.20;7.40;;;;;;;;;;3580905;40;20079;-69
2021/06/16 03:34:16;;;;;;;9.77;7.18;;;;;;;;;;3579946;40;20471;-69
2021/06/16 03:36:43;;;;;;;8.77;7.45;;;;;;;;;;3580381;40;20048;-69
2021/06/16 03:39:09;;;;;;;11.52;7.55;;;;;;;;;;3579468;40;20551;-70
2021/06/16 03:41:36;;;;;;;10.60;8.15;;;;;;;;;;3581390;40;20088;-69
2021/06/16 03:44:04;;;;;;;12.52;7.55;;;;;;;;;;3580042;40;20029;-69
2021/06/16 03:46:31;;;;;;;9.45;7.68;;;;;;;;;;3582395;40;20024;-70
2021/06/16 03:48:57;;;;;;;10.98;8.20;;;;;;;;;;3581692;40;20509;-70
2021/06/16 03:51:27;;;;;;;10.18;8.13;;;;;;;;;;3582734;40;20364;-69
2021/06/16 03:53:53;;;;;;;8.40;7.60;;;;;;;;;;3581695;40;20121;-70
2021/06/16 03:56:22;;;;;;;11.55;7.75;;;;;;;;;;3581725;40;20025;-69
2021/06/16 03:58:47;;;;;;;9.63;8.27;;;;;;;;;;3581543;40;20411;-69
2021/06/16 04:01:13;;;;;;;11.35;7.25;;;;;;;;;;3580891;40;20036;-69
2021/06/16 04:03:40;;;;;;;8.10;7.28;;;;;;;;;;3581522;40;20061;-69
2021/06/16 04:06:07;;;;;;;13.48;8.00;;;;;;;;;;3581818;40;20477;-70
2021/06/16 04:08:33;;;;;;;9.88;8.02;;;;;;;;;;3581280;40;20048;-70
2021/06/16 04:10:59;;;;;;;10.30;7.82;;;;;;;;;;3580676;40;20068;-70
2021/06/16 04:13:24;;;;;;;8.43;7.53;;;;;;;;;;3581633;40;20037;-69
2021/06/16 04:15:50;;;;;;;8.85;7.43;;;;;;;;;;3581478;40;20679;-70
2021/06/16 04:18:17;;;;;;;9.90;8.07;;;;;;;;;;3580780;40;20032;-69
2021/06/16 04:20:42;;;;;;;8.85;7.07;;;;;;;;;;3581480;40;20806;-70
2021/06/16 04:23:08;;;;;;;9.65;7.70;;;;;;;;;;3580449;40;20029;-69
2021/06/16 04:25:33;;;;;;;8.75;7.85;;;;;;;;;;3580833;40;20045;-70
2021/06/16 04:27:59;;;;;;;9.20;7.82;;;;;;;;;;3581381;40;20037;-69
2021/06/16 04:30:26;;;;;;;10.52;7.78;;;;;;;;;;3581403;40;20039;-70
2021/06/16 04:32:52;;;;;;;13.07;8.18;;;;;;;;;;3581411;40;20091;-70
2021/06/16 04:35:18;;;;;;;11.38;7.78;;;;;;;;;;3581204;40;20040;-69
2021/06/16 04:37:43;;;;;;;10.07;8.45;;;;;;;;;;3582207;40;20113;-69
2021/06/16 04:40:09;;;;;;;13.43;8.13;;;;;;;;;;3581065;40;20066;-69
2021/06/16 04:42:36;;;;;;;8.23;7.22;;;;;;;;;;3582496;40;20095;-69
2021/06/16 04:45:02;;;;;;;13.82;7.97;;;;;;;;;;3581956;40;20056;-70
2021/06/16 04:47:27;;;;;;;14.55;7.75;;;;;;;;;;3580616;40;20052;-69
2021/06/16 04:49:53;;;;;;;9.77;7.43;;;;;;;;;;3580692;40;20516;-70
2021/06/16 04:52:18;;;;;;;10.23;8.43;;;;;;;;;;3573924;40;20044;-69
2021/06/16 04:54:43;;;;;;;13.55;7.20;;;;;;;;;;3584300;40;20033;-69
2021/06/16 04:57:09;;;;;;;10.75;8.13;;;;;;;;;;3580695;40;20036;-70
2021/06/16 04:59:35;;;;;;;9.07;8.18;;;;;;;;;;3580417;40;20407;-70
2021/06/16 05:02:02;;;;;;;9.18;7.63;;;;;;;;;;3580857;40;20064;-70
2021/06/16 05:04:28;;;;;;;17.02;7.78;;;;;;;;;;3581848;40;20037;-69
2021/06/16 05:06:55;;;;;;;9.98;7.65;;;;;;;;;;3579180;40;20041;-69
2021/06/16 05:09:20;;;;;;;11.63;7.22;;;;;;;;;;3582333;40;20033;-69
2021/06/16 05:11:46;;;;;;;11.93;6.95;;;;;;;;;;3582021;40;20044;-69
2021/06/16 05:14:12;;;;;;;12.45;7.63;;;;;;;;;;3581866;40;20069;-69
2021/06/16 05:16:37;;;;;;;12.88;7.45;;;;;;;;;;3582078;40;20071;-69
2021/06/16 05:19:04;;;;;;;9.80;7.50;;;;;;;;;;3582065;40;20033;-69
2021/06/16 05:21:30;;;;;;;9.65;7.78;;;;;;;;;;3575740;40;20048;-70
2021/06/16 05:23:55;;;;;;;11.82;6.75;;;;;;;;;;3580558;40;20032;-70
2021/06/16 05:26:21;;;;;;;8.43;6.68;;;;;;;;;;3579633;40;20517;-70
2021/06/16 05:28:46;;;;;;;8.93;6.60;;;;;;;;;;3582353;40;20037;-70
2021/06/16 05:31:12;;;;;;;8.32;6.60;;;;;;;;;;3583397;40;20053;-66
2021/06/16 05:33:38;;;;;;;10.65;6.60;;;;;;;;;;3580741;40;20271;-68
2021/06/16 05:36:07;;;;;;;12.05;7.55;;;;;;;;;;3579011;40;20288;-70
2021/06/16 05:38:35;;;;;;;7.53;6.13;;;;;;;;;;3580738;40;20048;-69
2021/06/16 05:41:01;;;;;;;9.10;6.95;;;;;;;;;;3580781;40;20072;-68
2021/06/16 05:43:27;;;;;;;7.40;6.53;;;;;;;;;;3575926;40;20139;-70
2021/06/16 05:45:52;;;;;;;9.85;7.00;;;;;;;;;;3581378;40;20040;-69
2021/06/16 05:48:17;;;;;;;10.27;7.05;;;;;;;;;;3580502;40;20559;-70
2021/06/16 05:50:43;;;;;;;12.25;7.05;;;;;;;;;;3579631;40;20110;-70
2021/06/16 05:53:10;;;;;;;12.40;7.68;;;;;;;;;;3581638;40;20067;-71
2021/06/16 05:55:36;;;;;;;8.25;6.88;;;;;;;;;;3580515;40;20068;-70
2021/06/16 05:58:01;;;;;;;9.35;6.55;;;;;;;;;;3579916;40;20053;-70
2021/06/16 06:00:27;;;;;;;12.05;7.47;;;;;;;;;;3581161;40;20066;-70
2021/06/16 06:02:52;;;;;;;11.60;8.93;;;;;;;;;;3581005;40;20032;-70
2021/06/16 06:05:18;;;;;;;7.80;6.03;;;;;;;;;;3580027;40;20047;-70
2021/06/16 06:07:43;;;;;;;14.45;6.53;;;;;;;;;;3580008;40;20263;-69
2021/06/16 06:10:09;;;;;;;10.20;7.50;;;;;;;;;;3580187;40;20284;-68
2021/06/16 06:12:35;;;;;;;7.35;6.35;;;;;;;;;;3569744;40;20057;-69
2021/06/16 06:15:00;;;;;;;11.15;6.53;;;;;;;;;;3580394;40;20047;-70
2021/06/16 06:17:26;;;;;;;10.57;7.47;;;;;;;;;;3581062;40;20049;-70
2021/06/16 06:19:52;;;;;;;8.98;7.45;;;;;;;;;;3579733;40;20355;-69
2021/06/16 06:22:17;;;;;;;8.05;6.90;;;;;;;;;;3571984;40;20044;-69
2021/06/16 06:24:43;;;;;;;9.50;6.78;;;;;;;;;;3580050;40;20118;-69
2021/06/16 06:27:08;;;;;;;9.27;8.10;;;;;;;;;;3580275;40;20055;-69
2021/06/16 06:29:33;;;;;;;13.80;6.85;;;;;;;;;;3581030;40;20078;-70
2021/06/16 06:31:59;;;;;;;13.88;6.70;;;;;;;;;;3579618;40;20036;-69
2021/06/16 06:34:25;;;;;;;10.32;7.82;;;;;;;;;;3578879;40;20033;-70
2021/06/16 06:36:50;;;;;;;9.13;6.93;;;;;;;;;;3579438;40;20070;-70
2021/06/16 06:39:16;;;;;;;8.63;7.22;;;;;;;;;;3579425;40;20044;-70
2021/06/16 06:41:42;;;;;;;9.07;7.55;;;;;;;;;;3579418;40;20162;-70
2021/06/16 06:44:07;;;;;;;10.82;7.22;;;;;;;;;;3580270;40;20056;-71
2021/06/16 06:46:32;;;;;;;11.57;7.75;;;;;;;;;;3580696;40;20048;-70
2021/06/16 06:48:58;;;;;;;13.55;7.88;;;;;;;;;;3580830;40;20076;-70
2021/06/16 06:51:23;;;;;;;11.13;7.43;;;;;;;;;;3579517;40;20047;-70
2021/06/16 06:53:49;;;;;;;11.20;7.78;;;;;;;;;;3581873;40;20029;-70
2021/06/16 06:56:14;;;;;;;10.70;7.70;;;;;;;;;;3581317;40;20351;-69
2021/06/16 06:58:40;;;;;;;12.30;7.68;;;;;;;;;;3578569;40;20353;-69
2021/06/16 07:01:05;;;;;;;9.73;7.25;;;;;;;;;;3577398;40;21979;-69
2021/06/16 07:03:34;;;;;;;12.52;7.65;;;;;;;;;;3577577;40;20565;-69
2021/06/16 07:05:59;;;;;;;11.82;8.95;;;;;;;;;;3577735;40;20038;-71
2021/06/16 07:08:25;;;;;;;11.43;7.57;;;;;;;;;;3577340;40;20391;-70
2021/06/16 07:10:50;;;;;;;12.40;8.20;;;;;;;;;;3579766;40;20055;-70
2021/06/16 07:13:16;;;;;;;10.60;7.82;;;;;;;;;;3576398;40;20040;-70
2021/06/16 07:15:41;;;;;;;13.05;8.13;;;;;;;;;;3576756;40;20025;-70
2021/06/16 07:18:07;;;;;;;11.75;7.28;;;;;;;;;;3577369;40;20463;-69
2021/06/16 07:20:32;;;;;;;9.95;7.90;;;;;;;;;;3577954;40;20048;-70
2021/06/16 07:22:58;;;;;;;10.20;8.13;;;;;;;;;;3579082;40;20044;-69
2021/06/16 07:25:23;;;;;;;16.98;8.48;;;;;;;;;;3577762;40;20045;-70
2021/06/16 07:27:49;;;;;;;9.63;8.48;;;;;;;;;;3579313;40;20429;-70
2021/06/16 07:30:15;;;;;;;10.85;7.70;;;;;;;;;;3582405;40;20113;-71
2021/06/16 07:32:41;;;;;;;12.32;8.32;;;;;;;;;;3581418;40;20056;-70
2021/06/16 07:35:08;;;;;;;12.23;8.07;;;;;;;;;;3582764;40;20024;-69
2021/06/16 07:37:35;;;;;;;11.02;8.68;;;;;;;;;;3581791;40;20041;-69
2021/06/16 07:40:00;;;;;;;9.77;8.15;;;;;;;;;;3582235;40;20056;-71
2021/06/16 07:42:25;;;;;;;13.77;8.20;;;;;;;;;;3581539;40;20055;-70
2021/06/16 07:44:51;;;;;;;10.60;8.00;;;;;;;;;;3582913;40;20399;-70
2021/06/16 07:47:17;;;;;;;8.40;7.50;;;;;;;;;;3576753;40;20372;-71
2021/06/16 07:49:42;;;;;;;12.30;8.30;;;;;;;;;;3581002;40;20041;-70
2021/06/16 07:52:08;;;;;;;9.82;8.70;;;;;;;;;;3583776;40;20036;-70
2021/06/16 07:54:33;;;;;;;14.02;8.45;;;;;;;;;;3582835;40;20035;-70
2021/06/16 07:56:59;;;;;;;16.65;8.82;;;;;;;;;;3581132;40;20402;-70
2021/06/16 07:59:24;;;;;;;12.45;8.02;;;;;;;;;;3580565;40;20049;-69
2021/06/16 08:01:50;;;;;;;13.07;8.95;;;;;;;;;;3581745;40;20047;-71
2021/06/16 08:04:16;;;;;;;11.43;8.20;;;;;;;;;;3582340;40;20048;-70
2021/06/16 08:06:41;;;;;;;9.40;8.25;;;;;;;;;;3581297;40;20092;-70
2021/06/16 08:09:07;;;;;;;16.00;8.85;;;;;;;;;;3581747;40;20032;-69
2021/06/16 08:11:33;;;;;;;12.95;8.55;;;;;;;;;;3581007;40;20265;-71
2021/06/16 08:13:58;;;;;;;10.25;8.63;;;;;;;;;;3580843;40;20044;-71
2021/06/16 08:16:24;;;;;;;10.05;7.65;;;;;;;;;;3578865;40;20416;-70
2021/06/16 08:18:50;;;;;;;11.02;8.38;;;;;;;;;;3580262;40;20430;-69
2021/06/16 08:21:16;;;;;;;10.57;8.02;;;;;;;;;;3581915;40;20069;-69
2021/06/16 08:23:46;;;;;;;11.50;8.23;;;;;;;;;;3580080;40;20037;-68
2021/06/16 08:26:13;;;;;;;9.82;8.25;;;;;;;;;;3580049;40;20025;-68
2021/06/16 08:28:39;;;;;;;18.08;8.82;;;;;;;;;;3580722;40;20080;-69
2021/06/16 08:31:04;;;;;;;12.52;8.68;;;;;;;;;;3581418;40;20036;-66
2021/06/16 08:33:30;;;;;;;15.18;8.10;;;;;;;;;;3581006;40;20069;-63
2021/06/16 08:35:55;;;;;;;11.57;8.20;;;;;;;;;;3582718;40;20497;-62
2021/06/16 08:38:21;;;;;;;9.70;8.43;;;;;;;;;;3582791;40;20045;-62
2021/06/16 08:40:46;;;;;;;8.63;7.32;;;;;;;;;;3582033;40;20160;-63
2021/06/16 08:43:15;;;;;;;12.13;7.50;;;;;;;;;;3581366;40;20033;-63
2021/06/16 08:45:44;;;;;;;11.93;7.53;;;;;;;;;;3583272;40;20055;-62
2021/06/16 08:48:10;;;;;;;12.15;7.30;;;;;;;;;;3580037;40;20131;-62
2021/06/16 08:50:36;;;;;;;9.90;7.57;;;;;;;;;;3579462;40;20040;-62
2021/06/16 08:53:03;;;;;;;11.88;8.18;;;;;;;;;;3577814;40;20040;-63
2021/06/16 08:55:28;;;;;;;10.10;7.30;;;;;;;;;;3578199;40;20040;-63
2021/06/16 08:57:54;;;;;;;8.68;7.43;;;;;;;;;;3571258;40;20080;-62
2021/06/16 09:00:22;;;;;;;8.00;7.03;;;;;;;;;;3579013;40;20037;-62
2021/06/16 09:02:47;;;;;;;8.40;7.03;;;;;;;;;;3577458;40;20360;-62
2021/06/16 09:05:14;;;;;;;10.13;6.75;;;;;;;;;;3579102;40;20117;-62
2021/06/16 09:07:43;;;;;;;10.07;6.93;;;;;;;;;;3579371;40;20390;-62
2021/06/16 09:10:18;;;;;;;10.82;7.57;;;;;;;;;;3580678;40;20048;-62
2021/06/16 09:12:52;;;;;;;9.70;7.05;;;;;;;;;;3577848;40;20048;-61
2021/06/16 09:15:20;;;;;;;9.02;7.00;;;;;;;;;;3579956;40;20378;-62
2021/06/16 09:18:07;;;;;;;10.65;6.20;;;;;;;;;;3579214;40;20541;-62
2021/06/16 09:20:36;;;;;;;13.05;6.30;;;;;;;;;;3580131;40;20044;-62
2021/06/16 09:23:16;;;;;;;10.77;7.50;;;;;;;;;;3579121;40;20068;-62
2021/06/16 09:25:42;;;;;;;;;;;;;;;;;;3579823;40;20037;-63
2021/06/16 09:28:07;;;;;;;9.50;6.40;;;;;;;;;;3563322;40;19960;-62
2021/06/16 09:30:42;;;;;;;13.65;6.80;;;;;;;;;;3578763;40;20088;-63
2021/06/16 09:33:11;;;;;;;6.47;5.80;;;;;;;;;;3578759;40;20146;-62
2021/06/16 09:35:40;;;;;;;7.60;6.00;;;;;;;;;;3571482;40;20048;-62
2021/06/16 09:38:13;;;;;;;9.90;6.47;;;;;;;;;;3572134;40;20043;-61
2021/06/16 09:40:44;;;;;;;8.65;5.80;;;;;;;;;;3579424;40;20052;-62
2021/06/16 09:43:14;;;;;;;8.13;5.78;;;;;;;;;;3579222;40;20052;-62
2021/06/16 09:45:43;;;;;;;7.03;5.35;;;;;;;;;;3580276;40;20068;-62
2021/06/16 09:48:30;;;;;;;6.47;5.78;;;;;;;;;;3569624;40;20048;-62
2021/06/16 09:51:19;;;;;;;7.13;5.70;;;;;;;;;;3574144;40;20048;-62
2021/06/16 09:54:16;;;;;;;12.30;6.68;;;;;;;;;;3578814;40;20068;-62
2021/06/16 09:56:54;;;;;;;6.28;5.60;;;;;;;;;;3578774;40;20047;-62
2021/06/16 09:59:35;;;;;;;8.18;6.53;;;;;;;;;;3579544;40;20353;-62
2021/06/16 10:02:01;;;;;;;8.18;5.88;;;;;;;;;;3578274;40;20071;-60
2021/06/16 10:04:46;;;;;;;7.63;6.10;;;;;;;;;;3580465;40;20052;-61
2021/06/16 10:07:24;;;;;;;8.10;6.20;;;;;;;;;;3581140;40;20129;-61
2021/06/16 10:10:10;;;;;;;12.07;5.85;;;;;;;;;;3579468;40;20430;-61
2021/06/16 10:12:41;;;;;;;8.52;6.47;;;;;;;;;;3578283;40;20171;-62
2021/06/16 10:15:09;;;;;;;9.98;5.40;;;;;;;;;;3567350;40;20396;-61
2021/06/16 10:17:35;;;;;;;13.98;5.95;;;;;;;;;;3575064;40;20072;-62
2021/06/16 10:20:01;;;;;;;7.85;6.30;;;;;;;;;;3575941;40;20042;-61
2021/06/16 10:22:27;;;;;;;12.95;5.68;;;;;;;;;;3576733;40;20045;-62
2021/06/16 10:24:52;;;;;;;8.10;6.82;;;;;;;;;;3576198;40;20040;-61
2021/06/16 10:27:32;;;;;;;9.30;6.85;;;;;;;;;;3576454;40;20047;-62
2021/06/16 10:30:08;;;;;;;9.25;6.13;;;;;;;;;;3576510;40;20133;-61
2021/06/16 10:32:36;;;;;;;8.40;5.25;;;;;;;;;;3576118;40;20391;-62
2021/06/16 10:35:02;;;;;;;7.57;5.95;;;;;;;;;;3575949;40;20048;-61
2021/06/16 10:37:35;;;;;;;7.63;5.10;;;;;;;;;;3566378;40;20056;-61
2021/06/16 10:40:15;;;;;;;8.00;5.22;;;;;;;;;;3578739;40;20048;-61
2021/06/16 10:43:02;;;;;;;7.15;4.93;;;;;;;;;;3579381;40;20064;-62
2021/06/16 10:45:39;;;;;;;8.70;4.97;;;;;;;;;;3578435;40;20540;-62
2021/06/16 10:48:07;;;;;;;6.82;5.18;;;;;;;;;;3578069;40;20656;-61
2021/06/16 10:50:44;;;;;;;6.72;5.22;;;;;;;;;;3579290;40;20111;-62
2021/06/16 10:53:11;;;;;;;6.63;4.57;;;;;;;;;;3571792;40;20049;-62
2021/06/16 10:55:51;;;;;;;9.00;5.25;;;;;;;;;;3578661;40;20042;-63
2021/06/16 10:58:17;;;;;;;7.20;5.80;;;;;;;;;;3580399;40;20129;-62
2021/06/16 11:00:42;;;;;;;8.05;5.03;;;;;;;;;;3580407;40;20037;-62
2021/06/16 11:03:08;;;;;;;7.88;5.10;;;;;;;;;;3580137;40;20455;-62
2021/06/16 11:05:36;;;;;;;7.55;4.78;;;;;;;;;;3580294;40;20186;-62
2021/06/16 11:08:03;;;;;;;9.98;5.07;;;;;;;;;;3572424;40;20383;-62
2021/06/16 11:10:52;;;;;;;9.45;4.60;;;;;;;;;;3580635;40;20068;-62
2021/06/16 11:13:38;;;;;;;6.22;4.88;;;;;;;;;;3578781;40;21139;-62
2021/06/16 11:16:42;;;;;;;9.57;5.47;;;;;;;;;;3579271;40;20388;-63
2021/06/16 11:19:27;;;;;;;5.95;3.80;;;;;;;;;;3569039;40;20667;-61
2021/06/16 11:21:54;;;;;;;9.00;4.78;;;;;;;;;;3581317;40;20061;-62
2021/06/16 11:24:20;;;;;;;6.53;4.22;;;;;;;;;;3571599;40;20041;-62
2021/06/16 11:26:47;;;;;;;5.07;3.95;;;;;;;;;;3580904;40;20040;-63
2021/06/16 11:29:50;;;;;;;6.22;4.30;;;;;;;;;;3581085;40;20045;-63
2021/06/16 11:32:15;;;;;;;7.70;4.50;;;;;;;;;;3579281;40;20140;-63
2021/06/16 11:34:49;;;;;;;6.97;4.45;;;;;;;;;;3580573;40;20048;-63
2021/06/16 11:37:52;;;;;;;11.82;4.20;;;;;;;;;;3580400;40;20040;-63
2021/06/16 11:40:18;;;;;;;5.25;3.83;;;;;;;;;;3579780;40;20061;-63
2021/06/16 11:42:43;;;;;;;6.53;4.90;;;;;;;;;;3580520;40;20064;-64
2021/06/16 11:45:09;;;;;;;8.35;4.63;;;;;;;;;;3579862;40;20067;-64
2021/06/16 11:47:35;;;;;;;9.65;4.95;;;;;;;;;;3579922;40;20028;-64
2021/06/16 11:50:06;;;;;;;8.43;4.72;;;;;;;;;;3570433;40;20033;-63
2021/06/16 11:52:31;;;;;;;8.10;4.57;;;;;;;;;;3578772;40;20044;-64
2021/06/16 11:54:57;;;;;;;5.00;3.80;;;;;;;;;;3579418;40;20443;-63
2021/06/16 11:57:26;;;;;;;5.57;4.28;;;;;;;;;;3580171;40;20052;-64
2021/06/16 11:59:53;;;;;;;5.53;4.03;;;;;;;;;;3579606;40;20072;-63
2021/06/16 12:02:29;;;;;;;10.23;4.30;;;;;;;;;;3579741;40;20377;-65
2021/06/16 12:05:09;;;;;;;6.22;4.30;;;;;;;;;;3581057;40;20060;-66
2021/06/16 12:07:48;;;;;;;;;;;;;;;;;;3578826;40;20513;-66
2021/06/16 12:10:19;;;;;;;7.13;4.15;;;;;;;;;;3579380;40;19940;-64
2021/06/16 12:12:55;;;;;;;6.05;4.10;;;;;;;;;;3579777;40;20049;-66
2021/06/16 12:15:28;;;;;;;6.13;3.85;;;;;;;;;;3580646;40;20062;-65
2021/06/16 12:18:04;;;;;;;7.85;4.30;;;;;;;;;;3580714;40;20038;-65
2021/06/16 12:20:40;;;;;;;6.75;4.30;;;;;;;;;;3581622;40;20044;-64
2021/06/16 12:23:25;;;;;;;6.03;4.13;;;;;;;;;;3580161;40;20068;-64
2021/06/16 12:26:13;;;;;;;8.23;3.80;;;;;;;;;;3570993;40;20048;-65
2021/06/16 12:28:41;;;;;;;8.55;4.43;;;;;;;;;;3580577;40;20059;-65
2021/06/16 12:31:12;;;;;;;6.00;4.05;;;;;;;;;;3571146;40;20045;-66
2021/06/16 12:36:26;;;;;;;7.97;4.28;;;;;;;;;;3579300;40;20047;-66
2021/06/16 12:38:59;;;;;;;7.57;4.03;;;;;;;;;;3576937;40;20078;-64
2021/06/16 12:41:34;;;;;;;6.65;4.65;;;;;;;;;;3578965;40;20037;-66
2021/06/16 12:44:24;;;;;;;5.30;3.80;;;;;;;;;;3579566;40;20060;-66
2021/06/16 12:47:02;;;;;;;6.38;3.63;;;;;;;;;;3580793;40;20052;-66
2021/06/16 12:49:38;;;;;;;9.20;4.20;;;;;;;;;;3577967;40;20045;-63
2021/06/16 12:52:09;;;;;;;7.35;4.05;;;;;;;;;;3579200;40;20276;-63
2021/06/16 12:54:40;;;;;;;7.75;3.42;;;;;;;;;;3578812;40;20040;-63
2021/06/16 12:57:22;;;;;;;5.13;3.65;;;;;;;;;;3579042;40;20037;-65
2021/06/16 12:59:53;;;;;;;5.75;3.85;;;;;;;;;;3577808;40;20044;-65
2021/06/16 13:02:31;;;;;;;6.18;3.45;;;;;;;;;;3578435;40;20053;-65
2021/06/16 13:04:58;;;;;;;7.32;3.80;;;;;;;;;;3578396;40;20044;-64
2021/06/16 13:07:39;;;;;;;4.65;3.40;;;;;;;;;;3578278;40;20037;-64
2021/06/16 13:10:09;;;;;;;4.50;3.15;;;;;;;;;;3578939;40;20130;-64
2021/06/16 13:12:35;;;;;;;8.35;3.75;;;;;;;;;;3578465;40;20041;-64
2021/06/16 13:15:06;;;;;;;4.85;3.45;;;;;;;;;;3580663;40;20509;-63
2021/06/16 13:17:47;;;;;;;5.70;3.45;;;;;;;;;;3578345;40;20321;-63
2021/06/16 13:20:25;;;;;;;5.78;3.55;;;;;;;;;;3579137;40;20040;-65
2021/06/16 13:22:50;;;;;;;6.00;3.28;;;;;;;;;;3580193;40;20041;-66
2021/06/16 13:25:31;;;;;;;6.03;3.55;;;;;;;;;;3578819;40;20041;-66
2021/06/16 13:28:00;;;;;;;6.07;3.90;;;;;;;;;;3578440;40;20041;-65
2021/06/16 13:30:28;;;;;;;5.28;3.20;;;;;;;;;;3578045;40;20080;-67
2021/06/16 13:32:54;;;;;;;4.28;3.08;;;;;;;;;;3580205;40;20040;-66
2021/06/16 13:35:20;;;;;;;10.80;3.65;;;;;;;;;;3578950;40;20037;-66
2021/06/16 13:37:46;;;;;;;6.22;3.33;;;;;;;;;;3579990;40;20069;-66
2021/06/16 13:40:12;;;;;;;4.20;3.00;;;;;;;;;;3580355;40;20580;-66
2021/06/16 13:42:38;;;;;;;4.20;3.22;;;;;;;;;;3579444;40;20620;-65
2021/06/16 13:45:04;;;;;;;4.63;3.03;;;;;;;;;;3574602;40;20169;-65
2021/06/16 13:47:30;;;;;;;4.97;3.42;;;;;;;;;;3579098;40;20046;-66
2021/06/16 13:49:56;;;;;;;6.50;3.60;;;;;;;;;;3579404;40;20041;-65
2021/06/16 13:52:22;;;;;;;7.55;3.40;;;;;;;;;;3581080;40;20052;-65
2021/06/16 13:54:48;;;;;;;5.13;3.33;;;;;;;;;;3577837;40;20082;-65
2021/06/16 13:57:14;;;;;;;4.60;3.35;;;;;;;;;;3579267;40;20085;-65
2021/06/16 13:59:40;;;;;;;8.15;3.13;;;;;;;;;;3578953;40;20369;-65
2021/06/16 14:02:05;;;;;;;4.22;3.15;;;;;;;;;;3577766;40;20268;-65
2021/06/16 14:04:30;;;;;;;5.13;3.08;;;;;;;;;;3577349;40;20047;-65
2021/06/16 14:06:56;;;;;;;9.02;3.47;;;;;;;;;;3579872;40;20039;-65
2021/06/16 14:09:21;;;;;;;6.00;3.67;;;;;;;;;;3579318;40;20045;-65
2021/06/16 14:11:46;;;;;;;10.95;3.67;;;;;;;;;;3578579;40;20033;-65
2021/06/16 14:14:12;;;;;;;5.93;3.33;;;;;;;;;;3579251;40;20045;-65
2021/06/16 14:16:37;;;;;;;7.15;3.40;;;;;;;;;;3577553;40;20121;-65
2021/06/16 14:19:03;;;;;;;5.95;3.28;;;;;;;;;;3579474;40;20139;-65
2021/06/16 14:21:28;;;;;;;5.53;3.65;;;;;;;;;;3578793;40;20068;-65
2021/06/16 14:23:54;;;;;;;4.53;3.15;;;;;;;;;;3578855;40;20037;-65
2021/06/16 14:26:19;;;;;;;4.97;3.05;;;;;;;;;;3579443;40;20081;-65
2021/06/16 14:28:44;;;;;;;4.53;3.53;;;;;;;;;;3579137;40;20185;-65
2021/06/16 14:31:10;;;;;;;6.07;2.95;;;;;;;;;;3579233;40;20126;-64
2021/06/16 14:33:35;;;;;;;6.60;3.33;;;;;;;;;;3580001;40;20043;-65
2021/06/16 14:36:01;;;;;;;7.88;2.97;;;;;;;;;;3577333;40;20045;-65
2021/06/16 14:38:27;;;;;;;7.03;3.53;;;;;;;;;;3571802;40;20076;-65
2021/06/16 14:40:52;;;;;;;4.40;2.83;;;;;;;;;;3578424;40;20700;-65
2021/06/16 14:43:18;;;;;;;4.07;2.75;;;;;;;;;;3577794;40;20044;-64
2021/06/16 14:45:43;;;;;;;4.55;2.88;;;;;;;;;;3577004;40;20040;-65
2021/06/16 14:48:09;;;;;;;5.50;3.38;;;;;;;;;;3561467;40;20052;-65
2021/06/16 14:50:34;;;;;;;9.88;3.10;;;;;;;;;;3579837;40;20160;-65